sensor_id;sensor_type;location;lat;lon;timestamp;P1;durP1;ratioP1;P2;durP2;ratioP2
68858;SDS011;55864;49.238;8.092;2023-11-18T00:01:42;12.47;;;4.77;;
68858;SDS011;55864;49.238;8.092;2023-11-18T00:03:42;9.03;;;4.83;;
68858;SDS011;55864;49.238;8.092;2023-11-18T00:05:44;9.20;;;4.17;;
68858;SDS011;55864;49.238;8.092;2023-11-18T00:07:45;9.53;;;4.60;;
68858;SDS011;55864;49.238;8.092;2023-11-18T00:09:45;7.40;;;4.00;;
68858;SDS011;55864;49.238;8.092;2023-11-18T00:11:46;8.43;;;4.07;;
68858;SDS011;55864;49.238;8.092;2023-11-18T00:13:46;9.57;;;3.97;;
68858;SDS011;55864;49.238;8.092;2023-11-18T00:15:47;7.97;;;4.20;;
68858;SDS011;55864;49.238;8.092;2023-11-18T00:17:47;8.10;;;4.00;;
68858;SDS011;55864;49.238;8.092;2023-11-18T00:19:48;8.00;;;3.90;;
68858;SDS011;55864;49.238;8.092;2023-11-18T00:21:50;6.80;;;3.77;;
68858;SDS011;55864;49.238;8.092;2023-11-18T00:23:50;9.80;;;4.20;;
68858;SDS011;55864;49.238;8.092;2023-11-18T00:25:51;6.93;;;3.80;;
68858;SDS011;55864;49.238;8.092;2023-11-18T00:27:51;7.20;;;3.67;;
68858;SDS011;55864;49.238;8.092;2023-11-18T00:29:52;9.33;;;4.10;;
68858;SDS011;55864;49.238;8.092;2023-11-18T00:31:53;9.17;;;4.00;;
68858;SDS011;55864;49.238;8.092;2023-11-18T00:33:56;7.00;;;4.05;;
68858;SDS011;55864;49.238;8.092;2023-11-18T00:35:57;8.37;;;4.80;;
68858;SDS011;55864;49.238;8.092;2023-11-18T00:38:00;11.90;;;4.63;;
68858;SDS011;55864;49.238;8.092;2023-11-18T00:40:01;9.13;;;4.83;;
68858;SDS011;55864;49.238;8.092;2023-11-18T00:42:02;9.53;;;5.07;;
68858;SDS011;55864;49.238;8.092;2023-11-18T00:44:02;10.40;;;5.37;;
68858;SDS011;55864;49.238;8.092;2023-11-18T00:46:03;11.60;;;5.17;;
68858;SDS011;55864;49.238;8.092;2023-11-18T00:48:04;9.60;;;4.83;;
68858;SDS011;55864;49.238;8.092;2023-11-18T00:50:05;9.27;;;5.07;;
68858;SDS011;55864;49.238;8.092;2023-11-18T00:52:06;12.00;;;5.60;;
68858;SDS011;55864;49.238;8.092;2023-11-18T00:54:08;11.90;;;5.33;;
68858;SDS011;55864;49.238;8.092;2023-11-18T00:56:12;9.37;;;5.63;;
68858;SDS011;55864;49.238;8.092;2023-11-18T00:58:13;10.67;;;5.60;;
68858;SDS011;55864;49.238;8.092;2023-11-18T01:00:14;10.53;;;5.33;;
68858;SDS011;55864;49.238;8.092;2023-11-18T01:02:15;9.63;;;5.47;;
68858;SDS011;55864;49.238;8.092;2023-11-18T01:04:16;9.27;;;5.37;;
68858;SDS011;55864;49.238;8.092;2023-11-18T01:06:16;10.00;;;5.70;;
68858;SDS011;55864;49.238;8.092;2023-11-18T01:08:17;9.70;;;5.80;;
68858;SDS011;55864;49.238;8.092;2023-11-18T01:10:19;11.30;;;6.00;;
68858;SDS011;55864;49.238;8.092;2023-11-18T01:12:19;11.60;;;5.90;;
68858;SDS011;55864;49.238;8.092;2023-11-18T01:14:20;13.27;;;6.60;;
68858;SDS011;55864;49.238;8.092;2023-11-18T01:16:20;12.10;;;6.00;;
68858;SDS011;55864;49.238;8.092;2023-11-18T01:18:21;11.73;;;6.30;;
68858;SDS011;55864;49.238;8.092;2023-11-18T01:20:21;10.00;;;5.80;;
68858;SDS011;55864;49.238;8.092;2023-11-18T01:22:23;15.03;;;6.43;;
68858;SDS011;55864;49.238;8.092;2023-11-18T01:24:24;9.97;;;5.73;;
68858;SDS011;55864;49.238;8.092;2023-11-18T01:26:26;12.20;;;5.77;;
68858;SDS011;55864;49.238;8.092;2023-11-18T01:28:26;10.03;;;5.80;;
68858;SDS011;55864;49.238;8.092;2023-11-18T01:30:27;11.80;;;5.87;;
68858;SDS011;55864;49.238;8.092;2023-11-18T01:32:30;11.53;;;5.60;;
68858;SDS011;55864;49.238;8.092;2023-11-18T01:34:30;11.88;;;5.97;;
68858;SDS011;55864;49.238;8.092;2023-11-18T01:36:32;11.30;;;5.90;;
68858;SDS011;55864;49.238;8.092;2023-11-18T01:38:32;9.97;;;5.80;;
68858;SDS011;55864;49.238;8.092;2023-11-18T01:42:37;9.70;;;5.00;;
68858;SDS011;55864;49.238;8.092;2023-11-18T01:44:38;9.60;;;5.07;;
68858;SDS011;55864;49.238;8.092;2023-11-18T01:46:39;9.17;;;4.80;;
68858;SDS011;55864;49.238;8.092;2023-11-18T01:48:41;9.87;;;4.93;;
68858;SDS011;55864;49.238;8.092;2023-11-18T01:50:41;9.53;;;4.67;;
68858;SDS011;55864;49.238;8.092;2023-11-18T01:52:43;10.57;;;5.97;;
68858;SDS011;55864;49.238;8.092;2023-11-18T01:54:45;11.57;;;6.37;;
68858;SDS011;55864;49.238;8.092;2023-11-18T01:56:48;12.83;;;6.10;;
68858;SDS011;55864;49.238;8.092;2023-11-18T01:58:51;10.83;;;5.50;;
68858;SDS011;55864;49.238;8.092;2023-11-18T02:00:53;10.00;;;5.25;;
68858;SDS011;55864;49.238;8.092;2023-11-18T02:02:53;8.87;;;5.30;;
68858;SDS011;55864;49.238;8.092;2023-11-18T02:04:54;10.13;;;5.60;;
68858;SDS011;55864;49.238;8.092;2023-11-18T02:06:54;9.57;;;5.30;;
68858;SDS011;55864;49.238;8.092;2023-11-18T02:08:55;11.73;;;5.40;;
68858;SDS011;55864;49.238;8.092;2023-11-18T02:10:57;10.37;;;4.93;;
68858;SDS011;55864;49.238;8.092;2023-11-18T02:13:03;10.43;;;4.90;;
68858;SDS011;55864;49.238;8.092;2023-11-18T02:15:12;11.93;;;5.47;;
68858;SDS011;55864;49.238;8.092;2023-11-18T02:17:14;9.17;;;4.73;;
68858;SDS011;55864;49.238;8.092;2023-11-18T02:19:19;9.63;;;4.97;;
68858;SDS011;55864;49.238;8.092;2023-11-18T02:21:20;9.27;;;5.23;;
68858;SDS011;55864;49.238;8.092;2023-11-18T02:23:22;9.20;;;4.90;;
68858;SDS011;55864;49.238;8.092;2023-11-18T02:25:24;9.13;;;4.70;;
68858;SDS011;55864;49.238;8.092;2023-11-18T02:27:26;8.77;;;4.73;;
68858;SDS011;55864;49.238;8.092;2023-11-18T02:29:27;11.83;;;5.20;;
68858;SDS011;55864;49.238;8.092;2023-11-18T02:31:33;10.33;;;5.07;;
68858;SDS011;55864;49.238;8.092;2023-11-18T02:33:35;11.10;;;5.18;;
68858;SDS011;55864;49.238;8.092;2023-11-18T02:35:40;9.60;;;5.30;;
68858;SDS011;55864;49.238;8.092;2023-11-18T02:37:46;9.53;;;4.83;;
68858;SDS011;55864;49.238;8.092;2023-11-18T02:39:51;8.80;;;4.70;;
68858;SDS011;55864;49.238;8.092;2023-11-18T02:41:55;9.37;;;4.63;;
68858;SDS011;55864;49.238;8.092;2023-11-18T02:43:59;9.15;;;4.80;;
68858;SDS011;55864;49.238;8.092;2023-11-18T02:46:00;10.13;;;4.50;;
68858;SDS011;55864;49.238;8.092;2023-11-18T02:48:01;8.30;;;4.10;;
68858;SDS011;55864;49.238;8.092;2023-11-18T02:50:02;8.97;;;4.53;;
68858;SDS011;55864;49.238;8.092;2023-11-18T02:52:02;10.03;;;4.93;;
68858;SDS011;55864;49.238;8.092;2023-11-18T02:54:03;9.13;;;4.60;;
68858;SDS011;55864;49.238;8.092;2023-11-18T02:56:05;12.03;;;5.30;;
68858;SDS011;55864;49.238;8.092;2023-11-18T02:58:08;10.65;;;5.28;;
68858;SDS011;55864;49.238;8.092;2023-11-18T03:00:10;10.20;;;5.17;;
68858;SDS011;55864;49.238;8.092;2023-11-18T03:02:12;9.00;;;5.10;;
68858;SDS011;55864;49.238;8.092;2023-11-18T03:04:13;9.03;;;4.87;;
68858;SDS011;55864;49.238;8.092;2023-11-18T03:06:13;9.37;;;4.90;;
68858;SDS011;55864;49.238;8.092;2023-11-18T03:08:14;9.60;;;5.00;;
68858;SDS011;55864;49.238;8.092;2023-11-18T03:10:14;10.07;;;4.73;;
68858;SDS011;55864;49.238;8.092;2023-11-18T03:12:15;8.47;;;4.77;;
68858;SDS011;55864;49.238;8.092;2023-11-18T03:14:15;9.50;;;4.80;;
68858;SDS011;55864;49.238;8.092;2023-11-18T03:16:17;9.63;;;4.60;;
68858;SDS011;55864;49.238;8.092;2023-11-18T03:18:18;13.63;;;4.90;;
68858;SDS011;55864;49.238;8.092;2023-11-18T03:20:19;11.30;;;4.77;;
68858;SDS011;55864;49.238;8.092;2023-11-18T03:22:22;10.33;;;4.40;;
68858;SDS011;55864;49.238;8.092;2023-11-18T03:24:23;10.43;;;4.63;;
68858;SDS011;55864;49.238;8.092;2023-11-18T03:26:23;9.93;;;4.93;;
68858;SDS011;55864;49.238;8.092;2023-11-18T03:28:24;8.83;;;4.77;;
68858;SDS011;55864;49.238;8.092;2023-11-18T03:30:24;9.30;;;4.77;;
68858;SDS011;55864;49.238;8.092;2023-11-18T03:32:26;11.00;;;5.10;;
68858;SDS011;55864;49.238;8.092;2023-11-18T03:34:27;10.47;;;4.80;;
68858;SDS011;55864;49.238;8.092;2023-11-18T03:36:27;10.70;;;5.00;;
68858;SDS011;55864;49.238;8.092;2023-11-18T03:38:28;9.77;;;5.30;;
68858;SDS011;55864;49.238;8.092;2023-11-18T03:40:28;9.70;;;5.30;;
68858;SDS011;55864;49.238;8.092;2023-11-18T03:42:29;11.23;;;5.10;;
68858;SDS011;55864;49.238;8.092;2023-11-18T03:44:29;11.00;;;5.10;;
68858;SDS011;55864;49.238;8.092;2023-11-18T03:46:30;11.80;;;5.00;;
68858;SDS011;55864;49.238;8.092;2023-11-18T03:48:32;8.50;;;4.67;;
68858;SDS011;55864;49.238;8.092;2023-11-18T03:50:32;11.67;;;5.10;;
68858;SDS011;55864;49.238;8.092;2023-11-18T03:52:33;10.30;;;5.30;;
68858;SDS011;55864;49.238;8.092;2023-11-18T03:54:33;12.27;;;5.63;;
68858;SDS011;55864;49.238;8.092;2023-11-18T03:56:34;11.27;;;5.40;;
68858;SDS011;55864;49.238;8.092;2023-11-18T03:58:35;10.17;;;5.50;;
68858;SDS011;55864;49.238;8.092;2023-11-18T04:00:35;11.57;;;5.63;;
68858;SDS011;55864;49.238;8.092;2023-11-18T04:02:36;10.37;;;5.30;;
68858;SDS011;55864;49.238;8.092;2023-11-18T04:04:40;9.30;;;4.80;;
68858;SDS011;55864;49.238;8.092;2023-11-18T04:06:40;8.50;;;4.60;;
68858;SDS011;55864;49.238;8.092;2023-11-18T04:08:42;9.13;;;4.67;;
68858;SDS011;55864;49.238;8.092;2023-11-18T04:10:44;10.40;;;5.05;;
68858;SDS011;55864;49.238;8.092;2023-11-18T04:12:44;10.27;;;5.10;;
68858;SDS011;55864;49.238;8.092;2023-11-18T04:14:45;8.97;;;4.97;;
68858;SDS011;55864;49.238;8.092;2023-11-18T04:16:45;11.63;;;5.50;;
68858;SDS011;55864;49.238;8.092;2023-11-18T04:18:46;11.53;;;4.80;;
68858;SDS011;55864;49.238;8.092;2023-11-18T04:20:48;8.63;;;4.47;;
68858;SDS011;55864;49.238;8.092;2023-11-18T04:22:48;10.47;;;5.10;;
68858;SDS011;55864;49.238;8.092;2023-11-18T04:24:49;9.83;;;4.90;;
68858;SDS011;55864;49.238;8.092;2023-11-18T04:26:50;8.93;;;5.03;;
68858;SDS011;55864;49.238;8.092;2023-11-18T04:28:50;11.00;;;5.10;;
68858;SDS011;55864;49.238;8.092;2023-11-18T04:30:51;10.30;;;5.10;;
68858;SDS011;55864;49.238;8.092;2023-11-18T04:32:51;11.23;;;5.30;;
68858;SDS011;55864;49.238;8.092;2023-11-18T04:34:52;14.73;;;6.00;;
68858;SDS011;55864;49.238;8.092;2023-11-18T04:36:54;10.70;;;5.00;;
68858;SDS011;55864;49.238;8.092;2023-11-18T04:38:54;9.57;;;4.90;;
68858;SDS011;55864;49.238;8.092;2023-11-18T04:40:55;10.13;;;4.77;;
68858;SDS011;55864;49.238;8.092;2023-11-18T04:42:55;11.27;;;4.37;;
68858;SDS011;55864;49.238;8.092;2023-11-18T04:44:57;11.07;;;4.83;;
68858;SDS011;55864;49.238;8.092;2023-11-18T04:46:57;9.13;;;4.67;;
68858;SDS011;55864;49.238;8.092;2023-11-18T04:48:58;11.00;;;4.83;;
68858;SDS011;55864;49.238;8.092;2023-11-18T04:50:59;9.43;;;4.43;;
68858;SDS011;55864;49.238;8.092;2023-11-18T04:53:03;8.85;;;4.40;;
68858;SDS011;55864;49.238;8.092;2023-11-18T04:55:04;10.60;;;3.80;;
68858;SDS011;55864;49.238;8.092;2023-11-18T04:57:05;8.23;;;4.00;;
68858;SDS011;55864;49.238;8.092;2023-11-18T04:59:06;7.20;;;3.70;;
68858;SDS011;55864;49.238;8.092;2023-11-18T05:01:06;8.70;;;3.90;;
68858;SDS011;55864;49.238;8.092;2023-11-18T05:03:07;8.53;;;3.97;;
68858;SDS011;55864;49.238;8.092;2023-11-18T05:05:08;7.93;;;3.83;;
68858;SDS011;55864;49.238;8.092;2023-11-18T05:07:08;8.23;;;3.80;;
68858;SDS011;55864;49.238;8.092;2023-11-18T05:09:10;8.77;;;4.10;;
68858;SDS011;55864;49.238;8.092;2023-11-18T05:11:11;9.43;;;4.20;;
68858;SDS011;55864;49.238;8.092;2023-11-18T05:13:14;8.27;;;4.00;;
68858;SDS011;55864;49.238;8.092;2023-11-18T05:15:14;7.17;;;3.73;;
68858;SDS011;55864;49.238;8.092;2023-11-18T05:17:15;7.97;;;3.47;;
68858;SDS011;55864;49.238;8.092;2023-11-18T05:19:15;7.67;;;3.40;;
68858;SDS011;55864;49.238;8.092;2023-11-18T05:21:16;8.43;;;3.70;;
68858;SDS011;55864;49.238;8.092;2023-11-18T05:23:17;8.57;;;3.30;;
68858;SDS011;55864;49.238;8.092;2023-11-18T05:25:18;8.97;;;3.40;;
68858;SDS011;55864;49.238;8.092;2023-11-18T05:27:19;8.23;;;3.53;;
68858;SDS011;55864;49.238;8.092;2023-11-18T05:29:20;8.00;;;3.60;;
68858;SDS011;55864;49.238;8.092;2023-11-18T05:31:20;6.53;;;3.40;;
68858;SDS011;55864;49.238;8.092;2023-11-18T05:33:21;8.00;;;3.47;;
68858;SDS011;55864;49.238;8.092;2023-11-18T05:35:21;8.27;;;3.47;;
68858;SDS011;55864;49.238;8.092;2023-11-18T05:37:22;8.90;;;3.60;;
68858;SDS011;55864;49.238;8.092;2023-11-18T05:39:22;8.93;;;3.47;;
68858;SDS011;55864;49.238;8.092;2023-11-18T05:41:24;8.13;;;3.77;;
68858;SDS011;55864;49.238;8.092;2023-11-18T05:43:25;7.63;;;4.43;;
68858;SDS011;55864;49.238;8.092;2023-11-18T05:45:26;7.47;;;3.50;;
68858;SDS011;55864;49.238;8.092;2023-11-18T05:47:26;9.87;;;3.70;;
68858;SDS011;55864;49.238;8.092;2023-11-18T05:49:27;8.13;;;3.67;;
68858;SDS011;55864;49.238;8.092;2023-11-18T05:51:27;8.03;;;3.60;;
68858;SDS011;55864;49.238;8.092;2023-11-18T05:53:28;7.50;;;3.60;;
68858;SDS011;55864;49.238;8.092;2023-11-18T05:55:30;7.33;;;3.33;;
68858;SDS011;55864;49.238;8.092;2023-11-18T05:57:32;12.07;;;3.67;;
68858;SDS011;55864;49.238;8.092;2023-11-18T05:59:33;9.13;;;3.03;;
68858;SDS011;55864;49.238;8.092;2023-11-18T06:01:33;7.50;;;3.57;;
68858;SDS011;55864;49.238;8.092;2023-11-18T06:03:34;7.97;;;3.80;;
68858;SDS011;55864;49.238;8.092;2023-11-18T06:05:41;11.60;;;4.40;;
68858;SDS011;55864;49.238;8.092;2023-11-18T06:07:41;8.67;;;4.00;;
68858;SDS011;55864;49.238;8.092;2023-11-18T06:09:43;8.87;;;4.30;;
68858;SDS011;55864;49.238;8.092;2023-11-18T06:11:44;10.33;;;4.37;;
68858;SDS011;55864;49.238;8.092;2023-11-18T06:13:46;9.33;;;3.90;;
68858;SDS011;55864;49.238;8.092;2023-11-18T06:15:50;10.70;;;4.97;;
68858;SDS011;55864;49.238;8.092;2023-11-18T06:17:50;9.03;;;4.60;;
68858;SDS011;55864;49.238;8.092;2023-11-18T06:19:51;11.17;;;4.70;;
68858;SDS011;55864;49.238;8.092;2023-11-18T06:21:51;10.07;;;4.63;;
68858;SDS011;55864;49.238;8.092;2023-11-18T06:23:52;9.07;;;4.00;;
68858;SDS011;55864;49.238;8.092;2023-11-18T06:25:53;8.77;;;4.17;;
68858;SDS011;55864;49.238;8.092;2023-11-18T06:27:53;10.63;;;4.93;;
68858;SDS011;55864;49.238;8.092;2023-11-18T06:29:55;10.53;;;4.87;;
68858;SDS011;55864;49.238;8.092;2023-11-18T06:31:56;9.47;;;4.80;;
68858;SDS011;55864;49.238;8.092;2023-11-18T06:33:56;12.37;;;4.53;;
68858;SDS011;55864;49.238;8.092;2023-11-18T06:38:00;13.70;;;4.87;;
68858;SDS011;55864;49.238;8.092;2023-11-18T06:40:00;11.60;;;5.00;;
68858;SDS011;55864;49.238;8.092;2023-11-18T06:42:01;10.93;;;4.60;;
68858;SDS011;55864;49.238;8.092;2023-11-18T06:44:05;12.70;;;4.97;;
68858;SDS011;55864;49.238;8.092;2023-11-18T06:46:07;10.80;;;5.30;;
68858;SDS011;55864;49.238;8.092;2023-11-18T06:48:08;9.73;;;4.97;;
68858;SDS011;55864;49.238;8.092;2023-11-18T06:50:08;8.83;;;5.17;;
68858;SDS011;55864;49.238;8.092;2023-11-18T06:52:09;9.27;;;4.57;;
68858;SDS011;55864;49.238;8.092;2023-11-18T06:54:09;18.73;;;6.67;;
68858;SDS011;55864;49.238;8.092;2023-11-18T06:56:10;13.73;;;5.73;;
68858;SDS011;55864;49.238;8.092;2023-11-18T06:58:10;9.20;;;5.10;;
68858;SDS011;55864;49.238;8.092;2023-11-18T07:00:12;10.40;;;4.90;;
68858;SDS011;55864;49.238;8.092;2023-11-18T07:02:16;10.57;;;4.90;;
68858;SDS011;55864;49.238;8.092;2023-11-18T07:04:17;12.97;;;6.10;;
68858;SDS011;55864;49.238;8.092;2023-11-18T07:06:18;18.90;;;9.10;;
68858;SDS011;55864;49.238;8.092;2023-11-18T07:08:19;22.07;;;11.90;;
68858;SDS011;55864;49.238;8.092;2023-11-18T07:10:19;27.47;;;13.83;;
68858;SDS011;55864;49.238;8.092;2023-11-18T07:12:20;24.27;;;12.67;;
68858;SDS011;55864;49.238;8.092;2023-11-18T07:14:20;14.40;;;7.60;;
68858;SDS011;55864;49.238;8.092;2023-11-18T07:16:21;11.83;;;6.47;;
68858;SDS011;55864;49.238;8.092;2023-11-18T07:18:22;14.97;;;7.80;;
68858;SDS011;55864;49.238;8.092;2023-11-18T07:20:23;18.70;;;8.77;;
68858;SDS011;55864;49.238;8.092;2023-11-18T07:22:24;17.13;;;8.10;;
68858;SDS011;55864;49.238;8.092;2023-11-18T07:24:24;18.53;;;9.00;;
68858;SDS011;55864;49.238;8.092;2023-11-18T07:26:25;19.17;;;9.23;;
68858;SDS011;55864;49.238;8.092;2023-11-18T07:28:25;19.47;;;8.33;;
68858;SDS011;55864;49.238;8.092;2023-11-18T07:30:26;22.63;;;10.13;;
68858;SDS011;55864;49.238;8.092;2023-11-18T07:32:26;26.00;;;11.33;;
68858;SDS011;55864;49.238;8.092;2023-11-18T07:34:28;21.53;;;8.90;;
68858;SDS011;55864;49.238;8.092;2023-11-18T07:36:29;25.73;;;9.30;;
68858;SDS011;55864;49.238;8.092;2023-11-18T07:38:29;23.20;;;10.43;;
68858;SDS011;55864;49.238;8.092;2023-11-18T07:40:30;22.23;;;9.50;;
68858;SDS011;55864;49.238;8.092;2023-11-18T07:42:30;21.70;;;9.50;;
68858;SDS011;55864;49.238;8.092;2023-11-18T07:44:31;31.13;;;11.03;;
68858;SDS011;55864;49.238;8.092;2023-11-18T07:46:31;25.97;;;11.03;;
68858;SDS011;55864;49.238;8.092;2023-11-18T07:48:32;23.83;;;10.37;;
68858;SDS011;55864;49.238;8.092;2023-11-18T07:50:34;25.10;;;11.53;;
68858;SDS011;55864;49.238;8.092;2023-11-18T07:52:35;31.52;;;11.57;;
68858;SDS011;55864;49.238;8.092;2023-11-18T07:54:36;26.07;;;10.77;;
68858;SDS011;55864;49.238;8.092;2023-11-18T07:56:36;28.47;;;12.67;;
68858;SDS011;55864;49.238;8.092;2023-11-18T07:58:37;21.93;;;9.70;;
68858;SDS011;55864;49.238;8.092;2023-11-18T08:00:37;27.23;;;10.07;;
68858;SDS011;55864;49.238;8.092;2023-11-18T08:02:38;23.47;;;10.77;;
68858;SDS011;55864;49.238;8.092;2023-11-18T08:04:39;20.93;;;10.27;;
68858;SDS011;55864;49.238;8.092;2023-11-18T08:06:41;21.97;;;10.50;;
68858;SDS011;55864;49.238;8.092;2023-11-18T08:08:41;22.97;;;9.50;;
68858;SDS011;55864;49.238;8.092;2023-11-18T08:10:42;22.63;;;9.50;;
68858;SDS011;55864;49.238;8.092;2023-11-18T08:12:43;21.47;;;9.83;;
68858;SDS011;55864;49.238;8.092;2023-11-18T08:14:44;20.73;;;9.40;;
68858;SDS011;55864;49.238;8.092;2023-11-18T08:16:45;22.67;;;9.90;;
68858;SDS011;55864;49.238;8.092;2023-11-18T08:18:45;20.00;;;9.37;;
68858;SDS011;55864;49.238;8.092;2023-11-18T08:20:46;19.83;;;8.70;;
68858;SDS011;55864;49.238;8.092;2023-11-18T08:22:47;22.03;;;9.33;;
68858;SDS011;55864;49.238;8.092;2023-11-18T08:24:48;19.77;;;9.27;;
68858;SDS011;55864;49.238;8.092;2023-11-18T08:26:49;18.27;;;8.90;;
68858;SDS011;55864;49.238;8.092;2023-11-18T08:28:49;20.13;;;8.33;;
68858;SDS011;55864;49.238;8.092;2023-11-18T08:30:52;19.90;;;8.27;;
68858;SDS011;55864;49.238;8.092;2023-11-18T08:32:52;18.40;;;8.17;;
68858;SDS011;55864;49.238;8.092;2023-11-18T08:34:53;18.47;;;8.60;;
68858;SDS011;55864;49.238;8.092;2023-11-18T08:36:53;17.43;;;8.17;;
68858;SDS011;55864;49.238;8.092;2023-11-18T08:38:55;21.40;;;9.20;;
68858;SDS011;55864;49.238;8.092;2023-11-18T08:40:56;19.23;;;9.00;;
68858;SDS011;55864;49.238;8.092;2023-11-18T08:42:56;17.50;;;8.53;;
68858;SDS011;55864;49.238;8.092;2023-11-18T08:44:57;18.00;;;9.37;;
68858;SDS011;55864;49.238;8.092;2023-11-18T08:46:58;18.40;;;9.50;;
68858;SDS011;55864;49.238;8.092;2023-11-18T08:48:58;18.70;;;9.77;;
68858;SDS011;55864;49.238;8.092;2023-11-18T08:50:59;23.63;;;10.57;;
68858;SDS011;55864;49.238;8.092;2023-11-18T08:52:59;20.20;;;9.73;;
68858;SDS011;55864;49.238;8.092;2023-11-18T08:55:02;19.40;;;9.50;;
68858;SDS011;55864;49.238;8.092;2023-11-18T08:57:03;16.03;;;9.27;;
68858;SDS011;55864;49.238;8.092;2023-11-18T08:59:04;18.63;;;8.90;;
68858;SDS011;55864;49.238;8.092;2023-11-18T09:01:05;18.00;;;9.10;;
68858;SDS011;55864;49.238;8.092;2023-11-18T09:03:05;23.50;;;11.47;;
68858;SDS011;55864;49.238;8.092;2023-11-18T09:05:06;24.30;;;9.73;;
68858;SDS011;55864;49.238;8.092;2023-11-18T09:07:10;23.23;;;9.57;;
68858;SDS011;55864;49.238;8.092;2023-11-18T09:09:10;15.13;;;8.60;;
68858;SDS011;55864;49.238;8.092;2023-11-18T09:11:13;22.77;;;8.80;;
68858;SDS011;55864;49.238;8.092;2023-11-18T09:13:14;19.15;;;8.65;;
68858;SDS011;55864;49.238;8.092;2023-11-18T09:15:14;21.70;;;9.33;;
68858;SDS011;55864;49.238;8.092;2023-11-18T09:17:15;20.03;;;9.50;;
68858;SDS011;55864;49.238;8.092;2023-11-18T09:19:18;23.43;;;8.63;;
68858;SDS011;55864;49.238;8.092;2023-11-18T09:23:20;16.13;;;7.40;;
68858;SDS011;55864;49.238;8.092;2023-11-18T09:25:21;12.43;;;6.87;;
68858;SDS011;55864;49.238;8.092;2023-11-18T09:27:23;14.37;;;6.17;;
68858;SDS011;55864;49.238;8.092;2023-11-18T09:29:24;13.67;;;6.03;;
68858;SDS011;55864;49.238;8.092;2023-11-18T09:31:24;9.57;;;4.97;;
68858;SDS011;55864;49.238;8.092;2023-11-18T09:33:25;12.67;;;4.87;;
68858;SDS011;55864;49.238;8.092;2023-11-18T09:35:27;12.47;;;5.50;;
68858;SDS011;55864;49.238;8.092;2023-11-18T09:37:27;11.00;;;5.37;;
68858;SDS011;55864;49.238;8.092;2023-11-18T09:39:28;14.03;;;5.23;;
68858;SDS011;55864;49.238;8.092;2023-11-18T09:41:28;13.20;;;6.47;;
68858;SDS011;55864;49.238;8.092;2023-11-18T09:43:30;8.97;;;4.90;;
68858;SDS011;55864;49.238;8.092;2023-11-18T09:45:31;10.47;;;4.60;;
68858;SDS011;55864;49.238;8.092;2023-11-18T09:47:31;9.40;;;4.37;;
68858;SDS011;55864;49.238;8.092;2023-11-18T09:49:39;10.97;;;4.83;;
68858;SDS011;55864;49.238;8.092;2023-11-18T09:51:44;11.03;;;5.53;;
68858;SDS011;55864;49.238;8.092;2023-11-18T09:53:45;10.27;;;4.77;;
68858;SDS011;55864;49.238;8.092;2023-11-18T09:55:52;13.47;;;4.63;;
68858;SDS011;55864;49.238;8.092;2023-11-18T09:57:57;10.07;;;4.63;;
68858;SDS011;55864;49.238;8.092;2023-11-18T10:00:05;10.07;;;4.40;;
68858;SDS011;55864;49.238;8.092;2023-11-18T10:02:07;9.20;;;4.83;;
68858;SDS011;55864;49.238;8.092;2023-11-18T10:04:08;12.17;;;4.90;;
68858;SDS011;55864;49.238;8.092;2023-11-18T10:06:08;9.13;;;4.90;;
68858;SDS011;55864;49.238;8.092;2023-11-18T10:08:09;8.87;;;4.67;;
68858;SDS011;55864;49.238;8.092;2023-11-18T10:10:10;10.67;;;5.30;;
68858;SDS011;55864;49.238;8.092;2023-11-18T10:12:12;11.07;;;5.53;;
68858;SDS011;55864;49.238;8.092;2023-11-18T10:14:13;10.17;;;4.40;;
68858;SDS011;55864;49.238;8.092;2023-11-18T10:16:17;10.60;;;5.10;;
68858;SDS011;55864;49.238;8.092;2023-11-18T10:18:18;12.07;;;4.90;;
68858;SDS011;55864;49.238;8.092;2023-11-18T10:20:18;10.93;;;4.67;;
68858;SDS011;55864;49.238;8.092;2023-11-18T10:22:22;11.93;;;3.97;;
68858;SDS011;55864;49.238;8.092;2023-11-18T10:24:24;10.57;;;4.77;;
68858;SDS011;55864;49.238;8.092;2023-11-18T10:26:24;12.13;;;4.80;;
68858;SDS011;55864;49.238;8.092;2023-11-18T10:28:29;10.73;;;4.53;;
68858;SDS011;55864;49.238;8.092;2023-11-18T10:30:30;8.70;;;4.33;;
68858;SDS011;55864;49.238;8.092;2023-11-18T10:32:32;10.30;;;4.73;;
68858;SDS011;55864;49.238;8.092;2023-11-18T10:34:34;11.65;;;5.22;;
68858;SDS011;55864;49.238;8.092;2023-11-18T10:36:35;10.73;;;4.93;;
68858;SDS011;55864;49.238;8.092;2023-11-18T10:38:37;10.40;;;4.93;;
68858;SDS011;55864;49.238;8.092;2023-11-18T10:40:39;11.07;;;5.37;;
68858;SDS011;55864;49.238;8.092;2023-11-18T10:42:41;9.40;;;4.50;;
68858;SDS011;55864;49.238;8.092;2023-11-18T10:44:50;9.73;;;5.13;;
68858;SDS011;55864;49.238;8.092;2023-11-18T10:46:54;9.70;;;4.43;;
68858;SDS011;55864;49.238;8.092;2023-11-18T10:48:58;12.83;;;4.53;;
68858;SDS011;55864;49.238;8.092;2023-11-18T10:50:58;10.60;;;4.60;;
68858;SDS011;55864;49.238;8.092;2023-11-18T10:52:59;10.63;;;4.97;;
68858;SDS011;55864;49.238;8.092;2023-11-18T10:55:01;11.13;;;5.07;;
68858;SDS011;55864;49.238;8.092;2023-11-18T10:57:01;8.50;;;4.83;;
68858;SDS011;55864;49.238;8.092;2023-11-18T10:59:04;11.00;;;4.90;;
68858;SDS011;55864;49.238;8.092;2023-11-18T11:01:09;10.33;;;5.10;;
68858;SDS011;55864;49.238;8.092;2023-11-18T11:03:09;12.07;;;5.00;;
68858;SDS011;55864;49.238;8.092;2023-11-18T11:05:11;13.00;;;4.83;;
68858;SDS011;55864;49.238;8.092;2023-11-18T11:07:12;11.57;;;5.20;;
68858;SDS011;55864;49.238;8.092;2023-11-18T11:09:14;11.93;;;5.83;;
68858;SDS011;55864;49.238;8.092;2023-11-18T11:11:15;12.73;;;5.83;;
68858;SDS011;55864;49.238;8.092;2023-11-18T11:13:18;15.00;;;6.68;;
68858;SDS011;55864;49.238;8.092;2023-11-18T11:15:20;12.00;;;6.90;;
68858;SDS011;55864;49.238;8.092;2023-11-18T11:17:23;18.73;;;8.90;;
68858;SDS011;55864;49.238;8.092;2023-11-18T11:19:30;10.43;;;6.33;;
68858;SDS011;55864;49.238;8.092;2023-11-18T11:21:40;12.73;;;6.30;;
68858;SDS011;55864;49.238;8.092;2023-11-18T11:23:49;9.47;;;4.93;;
68858;SDS011;55864;49.238;8.092;2023-11-18T11:25:55;12.73;;;6.30;;
68858;SDS011;55864;49.238;8.092;2023-11-18T11:28:04;13.93;;;6.40;;
68858;SDS011;55864;49.238;8.092;2023-11-18T11:30:14;10.30;;;5.73;;
68858;SDS011;55864;49.238;8.092;2023-11-18T11:32:23;11.43;;;5.70;;
68858;SDS011;55864;49.238;8.092;2023-11-18T11:34:28;12.07;;;5.67;;
68858;SDS011;55864;49.238;8.092;2023-11-18T11:36:30;15.83;;;6.40;;
68858;SDS011;55864;49.238;8.092;2023-11-18T11:38:37;12.40;;;6.33;;
68858;SDS011;55864;49.238;8.092;2023-11-18T11:40:38;12.67;;;5.70;;
68858;SDS011;55864;49.238;8.092;2023-11-18T11:42:41;10.63;;;5.68;;
68858;SDS011;55864;49.238;8.092;2023-11-18T11:44:42;12.63;;;6.33;;
68858;SDS011;55864;49.238;8.092;2023-11-18T11:46:44;13.10;;;5.83;;
68858;SDS011;55864;49.238;8.092;2023-11-18T11:48:45;11.83;;;5.77;;
68858;SDS011;55864;49.238;8.092;2023-11-18T11:53:16;10.63;;;5.87;;
68858;SDS011;55864;49.238;8.092;2023-11-18T11:55:26;12.77;;;6.07;;
68858;SDS011;55864;49.238;8.092;2023-11-18T11:57:33;11.63;;;5.73;;
68858;SDS011;55864;49.238;8.092;2023-11-18T11:59:34;12.70;;;6.07;;
68858;SDS011;55864;49.238;8.092;2023-11-18T12:01:35;13.67;;;5.57;;
68858;SDS011;55864;49.238;8.092;2023-11-18T12:03:38;11.10;;;5.50;;
68858;SDS011;55864;49.238;8.092;2023-11-18T12:05:40;10.38;;;5.30;;
68858;SDS011;55864;49.238;8.092;2023-11-18T12:07:40;10.67;;;5.57;;
68858;SDS011;55864;49.238;8.092;2023-11-18T12:09:42;12.07;;;5.90;;
68858;SDS011;55864;49.238;8.092;2023-11-18T12:11:44;10.73;;;5.30;;
68858;SDS011;55864;49.238;8.092;2023-11-18T12:13:59;10.93;;;5.40;;